sensor_id;sensor_type;location;lat;lon;timestamp;pressure;altitude;pressure_sealevel;temperature;humidity
51468;BME280;37545;45.302;-122.946;2024-01-15T00:01:32;101766.13;;;-1.02;74.60
51468;BME280;37545;45.302;-122.946;2024-01-15T00:04:14;101775.53;;;-1.01;74.69
51468;BME280;37545;45.302;-122.946;2024-01-15T00:06:45;101773.44;;;-1.06;74.32
51468;BME280;37545;45.302;-122.946;2024-01-15T00:09:15;101787.69;;;-1.08;75.36
51468;BME280;37545;45.302;-122.946;2024-01-15T00:11:45;101791.16;;;-1.16;75.59
51468;BME280;37545;45.302;-122.946;2024-01-15T00:14:14;101793.00;;;-1.23;76.13
51468;BME280;37545;45.302;-122.946;2024-01-15T00:16:46;101787.50;;;-1.37;76.32
51468;BME280;37545;45.302;-122.946;2024-01-15T00:19:17;101792.50;;;-1.56;75.84
51468;BME280;37545;45.302;-122.946;2024-01-15T00:21:48;101798.22;;;-1.67;77.36
51468;BME280;37545;45.302;-122.946;2024-01-15T00:24:18;101806.28;;;-1.71;78.27
51468;BME280;37545;45.302;-122.946;2024-01-15T00:26:47;101803.41;;;-1.74;78.07
51468;BME280;37545;45.302;-122.946;2024-01-15T00:29:16;101799.88;;;-1.76;78.59
51468;BME280;37545;45.302;-122.946;2024-01-15T00:31:55;101804.50;;;-1.81;79.09
51468;BME280;37545;45.302;-122.946;2024-01-15T00:34:24;101810.75;;;-1.86;79.82
51468;BME280;37545;45.302;-122.946;2024-01-15T00:36:52;101817.19;;;-1.90;79.44
51468;BME280;37545;45.302;-122.946;2024-01-15T00:39:24;101819.13;;;-1.96;80.31
51468;BME280;37545;45.302;-122.946;2024-01-15T00:41:57;101826.03;;;-1.95;80.56
51468;BME280;37545;45.302;-122.946;2024-01-15T00:44:26;101825.69;;;-1.98;80.09
51468;BME280;37545;45.302;-122.946;2024-01-15T00:46:55;101829.13;;;-1.97;80.38
51468;BME280;37545;45.302;-122.946;2024-01-15T00:49:26;101830.50;;;-2.01;81.30
51468;BME280;37545;45.302;-122.946;2024-01-15T00:52:01;101832.84;;;-2.11;81.42
51468;BME280;37545;45.302;-122.946;2024-01-15T00:54:33;101819.44;;;-2.19;82.64
51468;BME280;37545;45.302;-122.946;2024-01-15T00:57:02;101828.38;;;-2.14;83.33
51468;BME280;37545;45.302;-122.946;2024-01-15T00:59:36;101822.00;;;-2.10;82.20
51468;BME280;37545;45.302;-122.946;2024-01-15T01:02:04;101822.13;;;-2.08;82.63
51468;BME280;37545;45.302;-122.946;2024-01-15T01:04:33;101819.28;;;-2.12;82.40
51468;BME280;37545;45.302;-122.946;2024-01-15T01:07:03;101816.75;;;-2.12;82.20
51468;BME280;37545;45.302;-122.946;2024-01-15T01:09:37;101817.97;;;-2.17;82.18
51468;BME280;37545;45.302;-122.946;2024-01-15T01:12:06;101824.81;;;-2.16;82.73
51468;BME280;37545;45.302;-122.946;2024-01-15T01:14:36;101828.81;;;-2.18;83.28
51468;BME280;37545;45.302;-122.946;2024-01-15T01:17:05;101827.81;;;-2.20;82.77
51468;BME280;37545;45.302;-122.946;2024-01-15T01:19:49;101832.28;;;-2.26;82.93
51468;BME280;37545;45.302;-122.946;2024-01-15T01:22:18;101831.69;;;-2.23;83.17
51468;BME280;37545;45.302;-122.946;2024-01-15T01:24:49;101830.78;;;-2.24;82.54
51468;BME280;37545;45.302;-122.946;2024-01-15T01:27:30;101832.28;;;-2.26;83.62
51468;BME280;37545;45.302;-122.946;2024-01-15T01:30:00;101839.00;;;-2.26;83.16
51468;BME280;37545;45.302;-122.946;2024-01-15T01:32:29;101846.59;;;-2.26;82.89
51468;BME280;37545;45.302;-122.946;2024-01-15T01:35:13;101844.50;;;-2.30;83.21
51468;BME280;37545;45.302;-122.946;2024-01-15T01:37:42;101853.00;;;-2.30;83.49
51468;BME280;37545;45.302;-122.946;2024-01-15T01:40:22;101851.66;;;-2.35;83.74
51468;BME280;37545;45.302;-122.946;2024-01-15T01:42:51;101847.75;;;-2.49;83.87
51468;BME280;37545;45.302;-122.946;2024-01-15T01:45:19;101845.78;;;-2.60;83.18
51468;BME280;37545;45.302;-122.946;2024-01-15T01:47:52;101856.81;;;-2.60;83.63
51468;BME280;37545;45.302;-122.946;2024-01-15T01:50:24;101847.13;;;-2.64;82.81
51468;BME280;37545;45.302;-122.946;2024-01-15T01:52:54;101842.94;;;-2.72;83.45
51468;BME280;37545;45.302;-122.946;2024-01-15T01:55:27;101857.56;;;-2.69;82.86
51468;BME280;37545;45.302;-122.946;2024-01-15T01:58:06;101845.91;;;-2.76;82.29
51468;BME280;37545;45.302;-122.946;2024-01-15T02:00:36;101851.72;;;-2.77;82.60
51468;BME280;37545;45.302;-122.946;2024-01-15T02:03:07;101858.13;;;-2.81;82.01
51468;BME280;37545;45.302;-122.946;2024-01-15T02:05:40;101855.13;;;-2.85;81.96
51468;BME280;37545;45.302;-122.946;2024-01-15T02:08:09;101862.25;;;-2.90;81.68
51468;BME280;37545;45.302;-122.946;2024-01-15T02:20:52;101868.28;;;-3.05;81.72
51468;BME280;37545;45.302;-122.946;2024-01-15T02:23:25;101862.50;;;-3.04;82.32
51468;BME280;37545;45.302;-122.946;2024-01-15T02:25:57;101864.88;;;-3.06;82.18
51468;BME280;37545;45.302;-122.946;2024-01-15T02:28:26;101875.88;;;-3.05;82.10
51468;BME280;37545;45.302;-122.946;2024-01-15T02:31:06;101883.81;;;-3.02;83.25
51468;BME280;37545;45.302;-122.946;2024-01-15T02:33:35;101881.59;;;-2.99;82.89
51468;BME280;37545;45.302;-122.946;2024-01-15T02:36:05;101883.53;;;-2.97;82.69
51468;BME280;37545;45.302;-122.946;2024-01-15T02:38:35;101889.47;;;-2.96;82.41
51468;BME280;37545;45.302;-122.946;2024-01-15T02:41:13;101893.19;;;-3.01;83.03
51468;BME280;37545;45.302;-122.946;2024-01-15T02:43:42;101893.25;;;-3.17;81.69
51468;BME280;37545;45.302;-122.946;2024-01-15T02:46:11;101883.94;;;-3.34;82.68
51468;BME280;37545;45.302;-122.946;2024-01-15T02:48:40;101889.72;;;-3.35;83.64
51468;BME280;37545;45.302;-122.946;2024-01-15T02:51:14;101895.44;;;-3.29;84.19
51468;BME280;37545;45.302;-122.946;2024-01-15T02:53:46;101897.53;;;-3.25;83.35
51468;BME280;37545;45.302;-122.946;2024-01-15T03:27:49;101912.81;;;-3.07;86.29
51468;BME280;37545;45.302;-122.946;2024-01-15T03:30:18;101913.97;;;-3.12;85.21
51468;BME280;37545;45.302;-122.946;2024-01-15T03:32:46;101918.75;;;-3.16;85.75
51468;BME280;37545;45.302;-122.946;2024-01-15T03:35:16;101910.56;;;-3.13;85.63
51468;BME280;37545;45.302;-122.946;2024-01-15T03:37:48;101908.81;;;-3.05;86.28
51468;BME280;37545;45.302;-122.946;2024-01-15T03:40:17;101904.19;;;-3.01;85.82
51468;BME280;37545;45.302;-122.946;2024-01-15T03:42:46;101902.72;;;-2.99;84.87
51468;BME280;37545;45.302;-122.946;2024-01-15T03:45:17;101900.03;;;-3.00;84.83
51468;BME280;37545;45.302;-122.946;2024-01-15T03:47:46;101902.13;;;-2.96;85.06
51468;BME280;37545;45.302;-122.946;2024-01-15T03:50:24;101913.50;;;-2.92;84.65
51468;BME280;37545;45.302;-122.946;2024-01-15T03:52:53;101903.50;;;-2.91;84.65
51468;BME280;37545;45.302;-122.946;2024-01-15T03:55:25;101912.91;;;-2.90;85.21
51468;BME280;37545;45.302;-122.946;2024-01-15T03:57:57;101915.84;;;-2.94;85.07
51468;BME280;37545;45.302;-122.946;2024-01-15T04:00:28;101923.28;;;-2.96;85.81
51468;BME280;37545;45.302;-122.946;2024-01-15T04:02:57;101931.06;;;-2.94;86.84
51468;BME280;37545;45.302;-122.946;2024-01-15T04:05:26;101924.50;;;-2.92;87.31
51468;BME280;37545;45.302;-122.946;2024-01-15T04:07:55;101915.56;;;-2.97;87.13
51468;BME280;37545;45.302;-122.946;2024-01-15T04:10:24;101922.72;;;-2.93;86.78
51468;BME280;37545;45.302;-122.946;2024-01-15T04:12:52;101931.06;;;-2.94;86.71
51468;BME280;37545;45.302;-122.946;2024-01-15T04:15:21;101939.41;;;-2.95;88.36
51468;BME280;37545;45.302;-122.946;2024-01-15T04:18:01;101937.13;;;-3.01;87.45
51468;BME280;37545;45.302;-122.946;2024-01-15T04:20:30;101926.53;;;-3.05;86.71
51468;BME280;37545;45.302;-122.946;2024-01-15T04:22:59;101925.00;;;-3.12;87.68
51468;BME280;37545;45.302;-122.946;2024-01-15T04:25:31;101919.47;;;-3.17;87.98
51468;BME280;37545;45.302;-122.946;2024-01-15T04:28:02;101931.81;;;-3.20;88.67
51468;BME280;37545;45.302;-122.946;2024-01-15T04:30:31;101925.69;;;-3.22;87.79
51468;BME280;37545;45.302;-122.946;2024-01-15T04:33:01;101922.28;;;-3.22;88.76
51468;BME280;37545;45.302;-122.946;2024-01-15T04:35:30;101929.75;;;-3.15;88.39
51468;BME280;37545;45.302;-122.946;2024-01-15T04:38:03;101935.88;;;-3.13;87.72
51468;BME280;37545;45.302;-122.946;2024-01-15T04:40:32;101938.13;;;-3.07;87.61
51468;BME280;37545;45.302;-122.946;2024-01-15T04:43:01;101939.19;;;-3.05;87.22
51468;BME280;37545;45.302;-122.946;2024-01-15T04:45:30;101945.31;;;-3.03;87.03
51468;BME280;37545;45.302;-122.946;2024-01-15T04:48:05;101948.31;;;-2.99;86.90
51468;BME280;37545;45.302;-122.946;2024-01-15T04:50:34;101951.00;;;-2.97;87.78
51468;BME280;37545;45.302;-122.946;2024-01-15T04:53:03;101951.63;;;-2.91;88.07
51468;BME280;37545;45.302;-122.946;2024-01-15T04:55:35;101950.44;;;-2.95;86.91
51468;BME280;37545;45.302;-122.946;2024-01-15T04:58:10;101951.31;;;-2.94;87.13
51468;BME280;37545;45.302;-122.946;2024-01-15T05:00:39;101957.59;;;-2.90;86.62
51468;BME280;37545;45.302;-122.946;2024-01-15T05:03:10;101941.94;;;-2.95;84.90
51468;BME280;37545;45.302;-122.946;2024-01-15T05:05:40;101940.88;;;-2.97;84.96
51468;BME280;37545;45.302;-122.946;2024-01-15T05:08:10;101944.59;;;-2.93;84.00
51468;BME280;37545;45.302;-122.946;2024-01-15T05:10:39;101938.94;;;-2.91;83.94
51468;BME280;37545;45.302;-122.946;2024-01-15T05:13:08;101937.28;;;-2.99;84.31
51468;BME280;37545;45.302;-122.946;2024-01-15T05:15:37;101960.81;;;-3.00;83.65
51468;BME280;37545;45.302;-122.946;2024-01-15T05:18:16;101957.25;;;-3.02;83.77
51468;BME280;37545;45.302;-122.946;2024-01-15T05:20:45;101953.38;;;-2.99;84.88
51468;BME280;37545;45.302;-122.946;2024-01-15T05:23:14;101952.47;;;-2.99;83.97
51468;BME280;37545;45.302;-122.946;2024-01-15T05:25:43;101963.81;;;-2.96;83.85
51468;BME280;37545;45.302;-122.946;2024-01-15T05:39:06;101969.50;;;-2.89;84.50
51468;BME280;37545;45.302;-122.946;2024-01-15T05:41:35;101975.91;;;-2.93;85.53
51468;BME280;37545;45.302;-122.946;2024-01-15T05:44:07;101969.03;;;-2.94;85.16
51468;BME280;37545;45.302;-122.946;2024-01-15T05:46:37;101965.63;;;-2.95;86.80
51468;BME280;37545;45.302;-122.946;2024-01-15T05:49:06;101967.25;;;-2.95;84.72
51468;BME280;37545;45.302;-122.946;2024-01-15T05:51:35;101963.09;;;-2.95;86.17
51468;BME280;37545;45.302;-122.946;2024-01-15T05:54:07;101974.09;;;-2.94;87.37
51468;BME280;37545;45.302;-122.946;2024-01-15T05:56:39;101967.97;;;-2.96;86.21
51468;BME280;37545;45.302;-122.946;2024-01-15T05:59:08;101975.34;;;-2.90;85.86
51468;BME280;37545;45.302;-122.946;2024-01-15T06:01:36;101956.69;;;-2.91;86.69
51468;BME280;37545;45.302;-122.946;2024-01-15T06:04:16;101955.97;;;-2.90;85.96
51468;BME280;37545;45.302;-122.946;2024-01-15T06:06:44;101951.38;;;-2.85;85.17
51468;BME280;37545;45.302;-122.946;2024-01-15T06:09:17;101948.06;;;-2.84;84.59
51468;BME280;37545;45.302;-122.946;2024-01-15T06:11:46;101953.31;;;-2.83;84.63
51468;BME280;37545;45.302;-122.946;2024-01-15T06:14:16;101953.47;;;-2.81;83.86
51468;BME280;37545;45.302;-122.946;2024-01-15T06:16:45;101954.78;;;-2.85;84.34
51468;BME280;37545;45.302;-122.946;2024-01-15T06:19:14;101947.19;;;-2.85;82.57
51468;BME280;37545;45.302;-122.946;2024-01-15T06:21:43;101959.13;;;-2.84;83.71
51468;BME280;37545;45.302;-122.946;2024-01-15T06:24:14;101964.19;;;-2.84;83.26
51468;BME280;37545;45.302;-122.946;2024-01-15T06:26:48;101969.25;;;-2.84;82.77
51468;BME280;37545;45.302;-122.946;2024-01-15T06:29:18;101975.38;;;-2.82;82.16
51468;BME280;37545;45.302;-122.946;2024-01-15T06:31:46;101954.63;;;-2.86;82.07
51468;BME280;37545;45.302;-122.946;2024-01-15T06:34:27;101964.44;;;-2.89;82.04
51468;BME280;37545;45.302;-122.946;2024-01-15T06:36:56;101964.44;;;-2.89;81.73
51468;BME280;37545;45.302;-122.946;2024-01-15T06:39:26;101962.38;;;-2.85;81.15
51468;BME280;37545;45.302;-122.946;2024-01-15T06:42:03;101966.88;;;-2.82;80.19
51468;BME280;37545;45.302;-122.946;2024-01-15T06:44:31;101966.72;;;-2.84;80.35
51468;BME280;37545;45.302;-122.946;2024-01-15T06:47:01;101968.09;;;-2.79;79.70
51468;BME280;37545;45.302;-122.946;2024-01-15T06:49:32;101963.75;;;-2.80;79.73
51468;BME280;37545;45.302;-122.946;2024-01-15T06:52:05;101960.78;;;-2.76;79.32
51468;BME280;37545;45.302;-122.946;2024-01-15T06:54:34;101959.72;;;-2.78;80.00
51468;BME280;37545;45.302;-122.946;2024-01-15T06:57:05;101966.59;;;-2.77;79.83
51468;BME280;37545;45.302;-122.946;2024-01-15T06:59:36;101974.94;;;-2.78;78.81
51468;BME280;37545;45.302;-122.946;2024-01-15T07:02:05;101983.69;;;-2.83;78.05
51468;BME280;37545;45.302;-122.946;2024-01-15T07:04:35;101978.34;;;-2.86;78.14
51468;BME280;37545;45.302;-122.946;2024-01-15T07:07:04;101986.53;;;-2.80;79.13
51468;BME280;37545;45.302;-122.946;2024-01-15T07:09:33;101978.75;;;-2.90;78.81
51468;BME280;37545;45.302;-122.946;2024-01-15T07:12:05;101978.44;;;-2.93;80.15
51468;BME280;37545;45.302;-122.946;2024-01-15T07:14:38;101989.47;;;-2.92;81.51
51468;BME280;37545;45.302;-122.946;2024-01-15T07:17:08;101987.66;;;-2.93;80.78
51468;BME280;37545;45.302;-122.946;2024-01-15T07:19:37;101999.31;;;-2.87;80.68
51468;BME280;37545;45.302;-122.946;2024-01-15T07:22:12;101995.31;;;-2.85;79.68
51468;BME280;37545;45.302;-122.946;2024-01-15T07:24:43;101993.66;;;-2.84;78.90
51468;BME280;37545;45.302;-122.946;2024-01-15T07:27:12;101989.53;;;-2.84;77.97
51468;BME280;37545;45.302;-122.946;2024-01-15T07:29:55;101986.25;;;-2.83;77.57
51468;BME280;37545;45.302;-122.946;2024-01-15T07:32:24;101981.16;;;-2.83;75.92
51468;BME280;37545;45.302;-122.946;2024-01-15T07:34:53;101977.16;;;-2.81;76.17
51468;BME280;37545;45.302;-122.946;2024-01-15T07:37:24;101972.09;;;-2.81;75.80
51468;BME280;37545;45.302;-122.946;2024-01-15T07:39:56;101977.47;;;-2.78;76.35
51468;BME280;37545;45.302;-122.946;2024-01-15T07:42:25;101976.75;;;-2.77;76.05
51468;BME280;37545;45.302;-122.946;2024-01-15T07:44:57;101969.97;;;-2.85;76.99
51468;BME280;37545;45.302;-122.946;2024-01-15T07:47:26;101979.38;;;-2.84;76.03
51468;BME280;37545;45.302;-122.946;2024-01-15T07:49:57;101981.16;;;-2.83;76.45
51468;BME280;37545;45.302;-122.946;2024-01-15T07:52:26;101981.63;;;-2.78;76.84
51468;BME280;37545;45.302;-122.946;2024-01-15T07:54:55;101985.81;;;-2.79;73.68
51468;BME280;37545;45.302;-122.946;2024-01-15T07:57:24;101992.66;;;-2.78;75.11
51468;BME280;37545;45.302;-122.946;2024-01-15T08:00:00;101991.94;;;-2.77;75.10
51468;BME280;37545;45.302;-122.946;2024-01-15T08:02:30;101988.53;;;-2.77;74.33
51468;BME280;37545;45.302;-122.946;2024-01-15T08:05:00;101979.69;;;-2.81;73.13
51468;BME280;37545;45.302;-122.946;2024-01-15T08:07:36;101977.59;;;-2.85;70.47
51468;BME280;37545;45.302;-122.946;2024-01-15T08:10:06;101960.97;;;-2.99;71.01
51468;BME280;37545;45.302;-122.946;2024-01-15T08:12:34;101964.09;;;-3.01;70.56
51468;BME280;37545;45.302;-122.946;2024-01-15T08:15:06;101974.97;;;-3.02;70.82
51468;BME280;37545;45.302;-122.946;2024-01-15T08:17:45;101983.88;;;-3.06;72.73
51468;BME280;37545;45.302;-122.946;2024-01-15T08:20:14;101980.69;;;-3.12;70.51
51468;BME280;37545;45.302;-122.946;2024-01-15T08:22:43;101976.22;;;-3.14;71.10
51468;BME280;37545;45.302;-122.946;2024-01-15T08:25:17;101984.88;;;-3.12;73.43
51468;BME280;37545;45.302;-122.946;2024-01-15T08:27:46;101978.91;;;-3.13;71.37
51468;BME280;37545;45.302;-122.946;2024-01-15T08:30:17;101981.84;;;-3.17;70.90
51468;BME280;37545;45.302;-122.946;2024-01-15T08:32:47;101974.84;;;-3.20;71.17
51468;BME280;37545;45.302;-122.946;2024-01-15T08:35:16;101984.81;;;-3.21;70.03
51468;BME280;37545;45.302;-122.946;2024-01-15T08:37:49;101978.53;;;-3.25;70.18
51468;BME280;37545;45.302;-122.946;2024-01-15T08:40:18;101980.44;;;-3.31;69.98
51468;BME280;37545;45.302;-122.946;2024-01-15T08:42:47;101982.22;;;-3.30;69.48
51468;BME280;37545;45.302;-122.946;2024-01-15T08:45:19;101996.03;;;-3.35;69.17
51468;BME280;37545;45.302;-122.946;2024-01-15T08:47:51;101999.31;;;-3.36;69.81
51468;BME280;37545;45.302;-122.946;2024-01-15T08:50:20;101992.13;;;-3.40;68.26
51468;BME280;37545;45.302;-122.946;2024-01-15T08:52:49;101994.75;;;-3.47;67.91
51468;BME280;37545;45.302;-122.946;2024-01-15T08:55:18;102007.41;;;-3.47;69.24
51468;BME280;37545;45.302;-122.946;2024-01-15T08:58:00;102014.03;;;-3.56;68.53
51468;BME280;37545;45.302;-122.946;2024-01-15T09:00:31;102009.69;;;-3.58;66.91
51468;BME280;37545;45.302;-122.946;2024-01-15T09:03:06;102007.59;;;-3.62;67.13
51468;BME280;37545;45.302;-122.946;2024-01-15T09:05:35;102007.72;;;-3.60;69.56
51468;BME280;37545;45.302;-122.946;2024-01-15T09:08:04;102011.72;;;-3.62;70.42
51468;BME280;37545;45.302;-122.946;2024-01-15T09:10:33;102020.78;;;-3.64;67.81
51468;BME280;37545;45.302;-122.946;2024-01-15T09:13:02;102025.69;;;-3.66;65.77
51468;BME280;37545;45.302;-122.946;2024-01-15T09:15:36;102022.28;;;-3.66;67.47
51468;BME280;37545;45.302;-122.946;2024-01-15T09:18:06;102019.88;;;-3.65;66.29
51468;BME280;37545;45.302;-122.946;2024-01-15T09:20:35;102022.81;;;-3.69;63.64
51468;BME280;37545;45.302;-122.946;2024-01-15T09:23:05;102019.56;;;-3.68;65.62
51468;BME280;37545;45.302;-122.946;2024-01-15T09:25:38;102024.13;;;-3.72;65.09
51468;BME280;37545;45.302;-122.946;2024-01-15T09:28:07;102024.31;;;-3.71;63.93
51468;BME280;37545;45.302;-122.946;2024-01-15T09:30:37;102024.22;;;-3.80;62.31
51468;BME280;37545;45.302;-122.946;2024-01-15T09:33:10;102034.47;;;-3.78;61.73
51468;BME280;37545;45.302;-122.946;2024-01-15T09:35:47;102035.47;;;-3.85;60.34
51468;BME280;37545;45.302;-122.946;2024-01-15T09:38:16;102038.41;;;-3.89;60.83
51468;BME280;37545;45.302;-122.946;2024-01-15T09:40:46;102051.78;;;-3.90;62.62
51468;BME280;37545;45.302;-122.946;2024-01-15T09:43:18;102041.72;;;-3.97;61.61
51468;BME280;37545;45.302;-122.946;2024-01-15T09:45:49;102055.44;;;-3.95;58.87
51468;BME280;37545;45.302;-122.946;2024-01-15T09:48:18;102059.69;;;-4.03;58.23
51468;BME280;37545;45.302;-122.946;2024-01-15T09:50:48;102067.41;;;-4.01;58.60
51468;BME280;37545;45.302;-122.946;2024-01-15T09:53:19;102067.97;;;-4.04;59.54
51468;BME280;37545;45.302;-122.946;2024-01-15T09:55:50;102073.03;;;-4.04;59.50
51468;BME280;37545;45.302;-122.946;2024-01-15T09:58:19;102067.09;;;-4.04;62.00
51468;BME280;37545;45.302;-122.946;2024-01-15T10:00:49;102077.19;;;-4.04;61.42
51468;BME280;37545;45.302;-122.946;2024-01-15T10:03:29;102062.66;;;-4.14;59.57
51468;BME280;37545;45.302;-122.946;2024-01-15T10:05:59;102065.03;;;-4.15;58.31
51468;BME280;37545;45.302;-122.946;2024-01-15T10:08:28;102071.38;;;-4.19;57.19
51468;BME280;37545;45.302;-122.946;2024-01-15T10:10:59;102069.97;;;-4.24;59.47
51468;BME280;37545;45.302;-122.946;2024-01-15T10:13:30;102068.56;;;-4.29;59.41
51468;BME280;37545;45.302;-122.946;2024-01-15T10:16:01;102082.66;;;-4.31;59.29
51468;BME280;37545;45.302;-122.946;2024-01-15T10:18:30;102084.84;;;-4.34;60.08
51468;BME280;37545;45.302;-122.946;2024-01-15T10:21:10;102084.84;;;-4.34;59.23
51468;BME280;37545;45.302;-122.946;2024-01-15T10:23:40;102086.31;;;-4.36;60.29
51468;BME280;37545;45.302;-122.946;2024-01-15T10:26:08;102083.41;;;-4.32;57.99
51468;BME280;37545;45.302;-122.946;2024-01-15T10:28:46;102083.97;;;-4.35;57.13
51468;BME280;37545;45.302;-122.946;2024-01-15T10:31:21;102091.56;;;-4.35;58.02
51468;BME280;37545;45.302;-122.946;2024-01-15T10:33:50;102084.84;;;-4.34;58.67
51468;BME280;37545;45.302;-122.946;2024-01-15T10:36:22;102087.38;;;-4.34;57.60
51468;BME280;37545;45.302;-122.946;2024-01-15T10:38:52;102097.09;;;-4.30;57.60
51468;BME280;37545;45.302;-122.946;2024-01-15T10:41:22;102096.75;;;-4.33;58.27
51468;BME280;37545;45.302;-122.946;2024-01-15T10:43:51;102101.47;;;-4.36;57.30
51468;BME280;37545;45.302;-122.946;2024-01-15T10:46:27;102097.31;;;-4.36;57.49
51468;BME280;37545;45.302;-122.946;2024-01-15T10:48:57;102101.16;;;-4.39;56.78
51468;BME280;37545;45.302;-122.946;2024-01-15T10:51:26;102101.81;;;-4.33;56.98
51468;BME280;37545;45.302;-122.946;2024-01-15T10:53:55;102086.31;;;-4.36;58.22
51468;BME280;37545;45.302;-122.946;2024-01-15T10:56:30;102097.31;;;-4.36;54.10
51468;BME280;37545;45.302;-122.946;2024-01-15T10:59:01;102097.88;;;-4.38;54.65
51468;BME280;37545;45.302;-122.946;2024-01-15T11:01:32;102106.16;;;-4.32;55.06
51468;BME280;37545;45.302;-122.946;2024-01-15T11:04:11;102101.41;;;-4.29;54.91
51468;BME280;37545;45.302;-122.946;2024-01-15T11:06:47;102094.97;;;-4.34;54.47
51468;BME280;37545;45.302;-122.946;2024-01-15T11:09:18;102104.50;;;-4.32;54.49
51468;BME280;37545;45.302;-122.946;2024-01-15T11:11:52;102098.56;;;-4.32;56.94
51468;BME280;37545;45.302;-122.946;2024-01-15T11:14:49;102102.31;;;-4.29;54.96
51468;BME280;37545;45.302;-122.946;2024-01-15T11:17:22;102092.94;;;-4.30;55.71
51468;BME280;37545;45.302;-122.946;2024-01-15T11:19:52;102083.41;;;-4.32;54.48
51468;BME280;37545;45.302;-122.946;2024-01-15T11:22:49;102079.25;;;-4.32;55.32
51468;BME280;37545;45.302;-122.946;2024-01-15T11:25:22;102087.88;;;-4.30;55.28
51468;BME280;37545;45.302;-122.946;2024-01-15T11:27:52;102074.44;;;-4.37;55.05
51468;BME280;37545;45.302;-122.946;2024-01-15T11:30:25;102077.09;;;-4.36;55.01
51468;BME280;37545;45.302;-122.946;2024-01-15T11:33:00;102080.88;;;-4.32;54.74
51468;BME280;37545;45.302;-122.946;2024-01-15T11:35:48;102083.03;;;-4.35;54.79
51468;BME280;37545;45.302;-122.946;2024-01-15T11:38:28;102088.09;;;-4.35;55.52
51468;BME280;37545;45.302;-122.946;2024-01-15T11:40:59;102090.97;;;-4.32;55.69
51468;BME280;37545;45.302;-122.946;2024-01-15T11:43:29;102089.91;;;-4.34;54.76
51468;BME280;37545;45.302;-122.946;2024-01-15T11:46:05;102092.81;;;-4.38;52.88
51468;BME280;37545;45.302;-122.946;2024-01-15T11:48:44;102088.34;;;-4.41;54.14
51468;BME280;37545;45.302;-122.946;2024-01-15T11:51:21;102081.50;;;-4.42;54.02
51468;BME280;37545;45.302;-122.946;2024-01-15T11:53:53;102089.22;;;-4.40;54.29
51468;BME280;37545;45.302;-122.946;2024-01-15T11:56:27;102080.25;;;-4.46;53.81
51468;BME280;37545;45.302;-122.946;2024-01-15T11:58:56;102083.09;;;-4.43;53.51
51468;BME280;37545;45.302;-122.946;2024-01-15T12:01:36;102082.78;;;-4.46;53.78
51468;BME280;37545;45.302;-122.946;2024-01-15T12:04:06;102082.22;;;-4.43;52.30
51468;BME280;37545;45.302;-122.946;2024-01-15T12:06:40;102076.22;;;-4.36;53.88
51468;BME280;37545;45.302;-122.946;2024-01-15T12:09:12;102082.66;;;-4.31;54.45
51468;BME280;37545;45.302;-122.946;2024-01-15T12:11:46;102068.56;;;-4.29;53.55
51468;BME280;37545;45.302;-122.946;2024-01-15T12:14:20;102066.78;;;-4.30;53.93
51468;BME280;37545;45.302;-122.946;2024-01-15T12:16:55;102069.81;;;-4.26;52.40
51468;BME280;37545;45.302;-122.946;2024-01-15T12:19:28;102058.78;;;-4.26;51.80
51468;BME280;37545;45.302;-122.946;2024-01-15T12:22:02;102053.91;;;-4.25;51.03
51468;BME280;37545;45.302;-122.946;2024-01-15T12:24:31;102047.41;;;-4.23;51.66
51468;BME280;37545;45.302;-122.946;2024-01-15T12:26:59;102050.41;;;-4.18;49.66
51468;BME280;37545;45.302;-122.946;2024-01-15T12:29:28;102062.16;;;-4.18;48.54
51468;BME280;37545;45.302;-122.946;2024-01-15T12:31:58;102052.06;;;-4.18;48.59
51468;BME280;37545;45.302;-122.946;2024-01-15T12:34:31;102073.66;;;-4.13;48.89
51468;BME280;37545;45.302;-122.946;2024-01-15T12:37:01;102068.78;;;-4.12;48.67
51468;BME280;37545;45.302;-122.946;2024-01-15T12:39:30;102065.53;;;-4.11;49.35
51468;BME280;37545;45.302;-122.946;2024-01-15T12:41:59;102057.75;;;-4.12;50.47
51468;BME280;37545;45.302;-122.946;2024-01-15T12:44:37;102054.09;;;-4.23;48.80
51468;BME280;37545;45.302;-122.946;2024-01-15T12:47:06;102071.22;;;-4.21;49.36
51468;BME280;37545;45.302;-122.946;2024-01-15T12:49:39;102060.59;;;-4.25;48.40
51468;BME280;37545;45.302;-122.946;2024-01-15T12:52:11;102069.97;;;-4.24;49.21
51468;BME280;37545;45.302;-122.946;2024-01-15T12:54:40;102076.97;;;-4.22;48.36
51468;BME280;37545;45.302;-122.946;2024-01-15T12:57:09;102063.44;;;-4.22;49.19
51468;BME280;37545;45.302;-122.946;2024-01-15T12:59:38;102064.19;;;-4.23;50.10
51468;BME280;37545;45.302;-122.946;2024-01-15T13:02:06;102065.09;;;-4.23;51.18
51468;BME280;37545;45.302;-122.946;2024-01-15T13:04:41;102057.00;;;-4.27;49.43
51468;BME280;37545;45.302;-122.946;2024-01-15T13:07:10;102063.44;;;-4.22;49.04
51468;BME280;37545;45.302;-122.946;2024-01-15T13:09:40;102065.97;;;-4.22;48.07
51468;BME280;37545;45.302;-122.946;2024-01-15T13:12:15;102072.84;;;-4.21;49.28
51468;BME280;37545;45.302;-122.946;2024-01-15T13:14:44;102070.72;;;-4.25;49.54
51468;BME280;37545;45.302;-122.946;2024-01-15T13:17:13;102072.34;;;-4.26;48.13
51468;BME280;37545;45.302;-122.946;2024-01-15T13:19:44;102074.88;;;-4.26;49.16
51468;BME280;37545;45.302;-122.946;2024-01-15T13:22:19;102077.97;;;-4.28;48.42
51468;BME280;37545;45.302;-122.946;2024-01-15T13:24:48;102093.44;;;-4.25;49.60
51468;BME280;37545;45.302;-122.946;2024-01-15T13:27:17;102100.84;;;-4.27;47.71
51468;BME280;37545;45.302;-122.946;2024-01-15T13:29:46;102093.13;;;-4.28;47.96
51468;BME280;37545;45.302;-122.946;2024-01-15T13:32:17;102087.31;;;-4.27;48.67
51468;BME280;37545;45.302;-122.946;2024-01-15T13:34:52;102076.47;;;-4.26;47.62